Time;durP1;ratioP1;P1;durP2;ratioP2;P2;SDS_P1;SDS_P2;PMS_P1;PMS_P2;Temp;Humidity;BMP_temperature;BMP_pressure;BME280_temperature;BME280_humidity;BME280_pressure;Samples;Min_cycle;Max_cycle;Signal;HPM_P1;HPM_P2
2022/06/15 04:22:36;;;;;;;10.68;6.88;;;;;;;14.04;88.27;100210.72;5109191;27;20327;-74
2022/06/15 04:25:02;;;;;;;10.98;7.20;;;;;;;14.06;88.92;100215.88;5091380;28;20073;-75
2022/06/15 04:27:30;;;;;;;14.85;8.40;;;;;;;14.08;88.70;100214.66;5108260;28;20044;-75
2022/06/15 04:29:56;;;;;;;11.73;7.43;;;;;;;14.09;89.06;100215.50;5092192;28;20032;-75
2022/06/15 04:32:22;;;;;;;11.18;7.13;;;;;;;14.12;89.88;100215.09;5107862;28;20027;-75
2022/06/15 04:34:48;;;;;;;11.57;8.13;;;;;;;14.15;88.67;100214.72;5108200;28;20046;-75
2022/06/15 04:37:14;;;;;;;8.82;6.68;;;;;;;14.15;89.36;100214.72;5107987;28;20110;-75
2022/06/15 04:39:45;;;;;;;13.18;7.07;;;;;;;14.17;89.06;100212.66;5108001;28;20488;-75
2022/06/15 04:42:11;;;;;;;10.85;7.43;;;;;;;14.23;89.45;100219.91;5108971;28;20036;-74
2022/06/15 04:44:37;;;;;;;11.35;7.47;;;;;;;14.27;88.95;100218.47;5107878;28;20031;-75
2022/06/15 04:47:03;;;;;;;9.65;7.05;;;;;;;14.33;88.87;100223.03;5107880;28;20431;-75
2022/06/15 04:49:30;;;;;;;10.45;7.15;;;;;;;14.46;87.77;100226.81;5107742;28;20036;-75
2022/06/15 04:51:56;;;;;;;13.25;6.70;;;;;;;14.53;86.60;100223.16;5107703;28;20044;-75
2022/06/15 04:54:22;;;;;;;9.18;6.10;;;;;;;14.60;85.81;100228.53;5108151;28;20036;-75
2022/06/15 04:56:51;;;;;;;10.50;6.95;;;;;;;14.71;83.87;100222.63;5107545;28;20056;-75
2022/06/15 04:59:17;;;;;;;10.27;6.65;;;;;;;14.79;84.89;100217.06;5107643;28;20400;-75
2022/06/15 05:01:44;;;;;;;11.77;7.47;;;;;;;14.91;84.71;100220.81;5107435;28;20059;-75
2022/06/15 05:04:10;;;;;;;9.40;6.70;;;;;;;14.98;83.68;100231.56;5107586;28;20068;-75
2022/06/15 05:06:40;;;;;;;9.03;6.13;;;;;;;15.06;83.39;100227.88;5107448;28;20497;-75
2022/06/15 05:09:14;;;;;;;10.07;6.28;;;;;;;15.12;83.13;100225.22;5108857;28;20043;-75
2022/06/15 05:11:42;;;;;;;6.90;5.57;;;;;;;15.25;83.65;100231.63;5107058;28;20046;-74
2022/06/15 05:14:08;;;;;;;12.73;7.10;;;;;;;15.32;84.23;100233.31;5108742;28;20028;-75
2022/06/15 05:16:39;;;;;;;8.18;6.10;;;;;;;15.45;82.60;100232.47;5107378;28;20519;-76
2022/06/15 05:19:11;;;;;;;7.68;5.53;;;;;;;15.59;82.36;100233.34;5107420;28;20138;-75
2022/06/15 05:21:41;;;;;;;7.90;5.40;;;;;;;15.70;81.32;100230.88;5106939;28;20548;-76
2022/06/15 05:24:08;;;;;;;9.52;6.15;;;;;;;15.74;79.27;100232.13;5107242;28;20043;-76
2022/06/15 05:26:51;;;;;;;8.80;4.90;;;;;;;15.81;78.64;100231.28;5092629;28;20101;-75
2022/06/15 05:29:17;;;;;;;10.57;5.75;;;;;;;15.88;78.60;100240.16;5107197;28;20036;-74
2022/06/15 05:31:46;;;;;;;7.05;5.20;;;;;;;15.95;78.54;100243.66;5089633;28;20039;-74
2022/06/15 05:34:13;;;;;;;9.10;5.90;;;;;;;15.99;78.97;100236.84;5093239;28;20353;-74
2022/06/15 05:36:38;;;;;;;7.80;5.60;;;;;;;16.05;78.55;100233.34;5076516;28;20051;-74
2022/06/15 05:39:05;;;;;;;7.72;5.50;;;;;;;16.12;78.32;100239.53;5094672;28;20106;-74
2022/06/15 05:41:34;;;;;;;9.80;6.22;;;;;;;16.21;77.53;100232.06;5093115;28;20839;-74
2022/06/15 05:44:03;;;;;;;9.35;6.13;;;;;;;16.25;77.49;100230.63;5093213;28;20135;-76
2022/06/15 05:46:39;;;;;;;9.68;5.88;;;;;;;16.32;76.95;100228.72;5093214;28;20063;-76
2022/06/15 05:49:30;;;;;;;12.50;6.90;;;;;;;16.43;76.45;100232.59;5093312;28;20509;-75
2022/06/15 05:51:56;;;;;;;15.05;6.57;;;;;;;16.49;75.17;100231.75;5076972;28;20047;-75
2022/06/15 05:54:23;;;;;;;8.80;6.18;;;;;;;16.59;74.86;100229.47;5076589;28;20396;-76
2022/06/15 05:56:49;;;;;;;11.68;7.10;;;;;;;16.84;73.99;100234.97;5076299;28;20043;-75
2022/06/15 05:59:14;;;;;;;8.85;5.75;;;;;;;17.19;72.00;100235.41;5094420;28;20442;-76
2022/06/15 06:01:41;;;;;;;9.27;5.53;;;;;;;17.53;70.46;100236.81;5093917;28;20035;-76
2022/06/15 06:04:07;;;;;;;8.80;5.00;;;;;;;17.42;69.07;100234.84;5093017;28;20496;-77
2022/06/15 06:06:33;;;;;;;10.85;5.05;;;;;;;17.40;70.14;100242.28;5092912;28;20032;-75
2022/06/15 06:08:59;;;;;;;7.25;4.82;;;;;;;17.44;69.89;100234.63;5094235;28;20052;-76
2022/06/15 06:11:25;;;;;;;8.63;5.22;;;;;;;17.45;69.93;100238.94;5093989;28;20404;-75
2022/06/15 06:13:51;;;;;;;8.23;5.03;;;;;;;17.45;69.15;100238.94;5093931;28;20032;-76
2022/06/15 06:16:18;;;;;;;7.88;4.95;;;;;;;17.50;69.84;100245.34;5093940;28;20040;-77
2022/06/15 06:18:43;;;;;;;7.97;5.50;;;;;;;17.52;69.70;100245.13;5094128;28;20040;-76
2022/06/15 06:21:09;;;;;;;7.30;5.07;;;;;;;17.57;69.06;100243.41;5093806;28;20097;-75
2022/06/15 06:23:36;;;;;;;9.20;4.75;;;;;;;17.61;69.67;100239.25;5094368;28;20036;-74
2022/06/15 06:26:03;;;;;;;7.47;4.50;;;;;;;17.73;68.87;100241.25;5093805;28;20370;-75
2022/06/15 06:28:30;;;;;;;7.50;4.73;;;;;;;17.84;67.83;100249.44;5093867;28;20090;-75
2022/06/15 06:30:57;;;;;;;10.57;4.88;;;;;;;17.88;67.85;100249.84;5093632;28;20039;-75
2022/06/15 06:33:25;;;;;;;6.07;4.15;;;;;;;17.96;68.09;100249.53;5093444;28;20032;-75
2022/06/15 06:35:50;;;;;;;9.32;4.60;;;;;;;18.05;67.88;100248.22;5093521;28;20028;-75
2022/06/15 06:38:16;;;;;;;9.95;4.50;;;;;;;18.15;67.04;100251.22;5093601;28;20082;-75
2022/06/15 06:40:42;;;;;;;7.13;5.15;;;;;;;18.29;67.07;100246.53;5092183;28;20489;-76
2022/06/15 06:43:07;;;;;;;5.68;4.78;;;;;;;18.37;66.08;100253.50;5091860;28;20404;-76
2022/06/15 06:45:33;;;;;;;8.10;4.72;;;;;;;18.42;65.16;100250.94;5092285;28;20111;-76
2022/06/15 06:48:00;;;;;;;6.40;4.53;;;;;;;18.48;64.59;100252.75;5093394;28;20598;-74
2022/06/15 06:50:26;;;;;;;9.32;5.10;;;;;;;18.65;65.10;100261.06;5093336;28;20089;-74
2022/06/15 06:52:53;;;;;;;7.32;4.57;;;;;;;18.70;65.20;100259.34;5093074;28;20075;-75
2022/06/15 06:55:21;;;;;;;9.82;5.20;;;;;;;18.80;64.74;100263.41;5093151;28;20044;-75
2022/06/15 06:57:47;;;;;;;;;;;;;;;18.89;62.77;100270.13;5092466;28;20040;-74
2022/06/15 07:00:13;;;;;;;8.23;4.57;;;;;;;19.03;62.58;100271.59;5092988;28;19919;-74
2022/06/15 07:02:38;;;;;;;9.05;4.90;;;;;;;19.24;61.21;100263.03;5092820;28;20551;-74
2022/06/15 07:05:04;;;;;;;6.65;4.15;;;;;;;19.31;60.98;100264.81;5093128;28;20170;-75
2022/06/15 07:07:33;;;;;;;8.77;4.45;;;;;;;19.33;61.93;100262.69;5092745;28;20123;-74
2022/06/15 07:09:58;;;;;;;7.80;4.55;;;;;;;19.38;62.75;100265.53;5092766;28;20113;-76
2022/06/15 07:12:24;;;;;;;6.60;4.45;;;;;;;19.58;60.80;100266.09;5092404;28;20066;-76
2022/06/15 07:14:51;;;;;;;10.27;4.72;;;;;;;19.83;59.59;100268.59;5091577;28;20082;-74
2022/06/15 07:17:17;;;;;;;8.23;4.68;;;;;;;19.85;58.85;100262.94;5092828;28;20040;-75
2022/06/15 07:19:43;;;;;;;9.10;4.72;;;;;;;20.03;58.33;100262.84;5092710;28;20039;-74
2022/06/15 07:22:08;;;;;;;7.65;4.57;;;;;;;20.08;58.97;100264.84;5092120;28;20044;-75
2022/06/15 07:24:34;;;;;;;8.80;4.75;;;;;;;20.24;59.55;100270.38;5092512;28;20070;-74
2022/06/15 07:26:59;;;;;;;7.90;4.75;;;;;;;20.34;59.69;100267.06;5092382;28;20040;-74
2022/06/15 07:29:25;;;;;;;7.07;4.95;;;;;;;20.43;58.30;100267.53;5092487;28;20051;-74
2022/06/15 07:31:54;;;;;;;8.77;5.25;;;;;;;20.58;58.18;100267.88;5092091;28;20036;-75
2022/06/15 07:34:20;;;;;;;6.72;4.63;;;;;;;20.65;58.13;100271.28;5091184;28;20473;-75
2022/06/15 07:36:47;;;;;;;7.03;5.18;;;;;;;20.77;57.65;100274.78;5092284;28;20031;-75
2022/06/15 07:39:16;;;;;;;7.47;4.43;;;;;;;20.87;57.45;100274.19;5091048;28;20107;-75
2022/06/15 07:41:42;;;;;;;9.80;5.20;;;;;;;20.94;58.35;100274.88;5091903;28;20125;-75
2022/06/15 07:44:08;;;;;;;6.93;4.35;;;;;;;21.20;57.05;100278.06;5092254;28;20032;-75
2022/06/15 07:46:33;;;;;;;6.82;4.65;;;;;;;21.19;56.55;100279.09;5090988;28;20118;-76
2022/06/15 07:51:59;;;;;;;7.20;4.75;;;;;;;21.42;57.38;100267.38;5090781;28;20028;-75
2022/06/15 07:54:26;;;;;;;7.25;5.03;;;;;;;21.55;56.67;100270.59;5091976;28;20085;-76
2022/06/15 07:56:53;;;;;;;6.80;4.70;;;;;;;21.67;56.16;100273.25;5091900;28;20028;-75
2022/06/15 07:59:19;;;;;;;6.55;4.50;;;;;;;21.80;56.76;100272.91;5090795;28;20043;-75
2022/06/15 08:01:46;;;;;;;6.85;4.03;;;;;;;21.87;56.45;100270.03;5091508;28;20039;-75
2022/06/15 08:04:13;;;;;;;9.90;4.65;;;;;;;22.19;54.61;100281.97;5091903;28;20500;-74
2022/06/15 08:06:41;;;;;;;6.28;4.65;;;;;;;22.31;54.98;100278.34;5091854;28;20134;-75
2022/06/15 08:09:09;;;;;;;6.57;4.47;;;;;;;22.35;53.62;100274.84;5091910;28;20039;-75
2022/06/15 08:11:37;;;;;;;6.65;4.55;;;;;;;22.45;52.91;100275.00;5090394;28;20036;-76
2022/06/15 08:14:03;;;;;;;9.93;4.95;;;;;;;22.73;53.93;100275.91;5090277;28;20116;-75
2022/06/15 08:16:28;;;;;;;6.70;4.00;;;;;;;22.80;53.78;100273.00;5090569;28;20051;-75
2022/06/15 08:18:59;;;;;;;6.88;4.18;;;;;;;22.99;52.61;100275.16;5091727;28;20031;-75
2022/06/15 08:21:29;;;;;;;10.50;5.00;;;;;;;23.08;51.35;100280.13;5091419;28;20048;-74
2022/06/15 08:23:57;;;;;;;7.95;4.38;;;;;;;23.18;50.39;100277.53;5091414;28;20034;-74
2022/06/15 08:26:34;;;;;;;7.93;4.57;;;;;;;23.46;49.51;100279.16;5091604;28;20032;-74
2022/06/15 08:29:03;;;;;;;6.13;4.20;;;;;;;23.48;48.52;100272.41;5091625;28;20381;-75
2022/06/15 08:31:29;;;;;;;6.97;4.22;;;;;;;23.63;49.30;100268.22;5090314;28;20066;-75
2022/06/15 08:33:54;;;;;;;5.55;3.90;;;;;;;23.77;49.77;100264.81;5091686;28;20400;-74
2022/06/15 08:36:20;;;;;;;9.00;4.65;;;;;;;23.94;48.29;100269.28;5091455;28;20477;-74
2022/06/15 08:38:47;;;;;;;4.80;3.75;;;;;;;24.04;48.02;100259.28;5090088;28;20044;-75
2022/06/15 08:41:35;;;;;;;6.95;4.00;;;;;;;24.18;45.32;100269.72;5089957;28;20036;-76
2022/06/15 08:44:06;;;;;;;6.18;3.80;;;;;;;24.33;46.18;100267.09;5091187;28;20390;-75
2022/06/15 08:46:44;;;;;;;5.45;4.10;;;;;;;24.61;46.92;100263.19;5091430;28;20032;-75
2022/06/15 08:49:26;;;;;;;6.30;4.07;;;;;;;24.75;46.29;100258.06;5091398;28;20028;-75
2022/06/15 08:52:01;;;;;;;7.15;4.53;;;;;;;24.87;44.93;100256.75;5090998;28;20500;-75
2022/06/15 08:54:38;;;;;;;7.40;4.47;;;;;;;24.90;43.20;100263.56;5091355;28;20028;-74
2022/06/15 08:57:17;;;;;;;6.80;3.70;;;;;;;24.99;43.63;100259.25;5091270;28;20134;-75
2022/06/15 08:59:57;;;;;;;11.82;4.22;;;;;;;25.37;44.70;100259.91;5091225;28;20032;-75
2022/06/15 09:03:01;;;;;;;5.72;4.00;;;;;;;25.63;44.54;100258.84;5090915;28;20040;-74
2022/06/15 09:05:41;;;;;;;4.93;3.72;;;;;;;25.81;43.56;100262.13;5078776;28;20051;-75
2022/06/15 09:08:52;;;;;;;8.15;3.97;;;;;;;25.77;42.84;100267.31;5092866;28;20111;-74
2022/06/15 09:11:37;;;;;;;11.65;4.65;;;;;;;25.75;42.57;100258.56;5089321;28;20051;-75
2022/06/15 09:14:09;;;;;;;5.32;4.03;;;;;;;26.14;43.40;100256.06;5094515;28;20514;-75
2022/06/15 09:17:01;;;;;;;4.88;4.10;;;;;;;26.28;43.35;100264.53;5093572;28;20504;-75
2022/06/15 09:19:32;;;;;;;6.43;3.70;;;;;;;26.12;42.35;100254.72;5094754;28;20039;-76
2022/06/15 09:22:03;;;;;;;5.85;3.55;;;;;;;26.53;42.07;100269.09;5094246;28;20032;-75
2022/06/15 09:25:10;;;;;;;5.55;3.60;;;;;;;26.74;39.28;100254.28;5094878;28;20424;-76
2022/06/15 09:28:00;;;;;;;4.28;3.70;;;;;;;26.91;39.06;100261.31;5071806;28;20127;-76
2022/06/15 09:30:31;;;;;;;5.10;4.13;;;;;;;27.18;38.35;100255.44;5061354;28;20048;-76
2022/06/15 09:33:08;;;;;;;5.63;3.75;;;;;;;27.31;38.42;100255.63;5087179;28;20154;-75
2022/06/15 09:35:56;;;;;;;6.43;3.33;;;;;;;27.58;40.07;100259.78;5094755;28;20138;-74
2022/06/15 09:38:22;;;;;;;7.82;3.85;;;;;;;27.87;39.19;100253.59;5094628;28;20068;-74
2022/06/15 09:40:55;;;;;;;7.72;3.88;;;;;;;27.93;38.52;100260.66;5093314;28;20122;-75
2022/06/15 09:43:58;;;;;;;7.15;3.88;;;;;;;28.20;37.82;100260.09;5094175;28;20036;-75
2022/06/15 09:46:57;;;;;;;6.70;3.67;;;;;;;28.39;37.91;100259.09;5093045;28;20039;-75
2022/06/15 09:49:31;;;;;;;5.80;3.75;;;;;;;28.44;36.62;100250.00;5094359;28;20374;-75
2022/06/15 09:52:09;;;;;;;6.03;3.60;;;;;;;28.65;37.38;100245.91;5093803;28;20121;-75
2022/06/15 09:54:43;;;;;;;5.15;3.63;;;;;;;28.89;36.66;100243.13;5094423;28;20075;-76
2022/06/15 09:57:11;;;;;;;4.30;3.60;;;;;;;29.15;38.81;100242.81;5094124;28;20082;-75
2022/06/15 09:59:37;;;;;;;5.55;3.53;;;;;;;29.14;36.20;100236.47;5094231;28;20096;-74
2022/06/15 10:02:05;;;;;;;5.50;3.80;;;;;;;29.57;35.12;100241.06;5093838;28;20024;-75
2022/06/15 10:04:34;;;;;;;6.97;3.75;;;;;;;29.53;34.23;100240.03;5094030;28;20282;-75
2022/06/15 10:07:06;;;;;;;5.32;3.90;;;;;;;29.63;34.11;100251.66;5093868;28;20484;-76
2022/06/15 10:09:35;;;;;;;4.82;3.80;;;;;;;29.81;34.39;100246.44;5093940;28;20042;-76
2022/06/15 10:15:13;;;;;;;10.50;4.65;;;;;;;30.20;33.14;100238.59;5093777;28;20043;-75
2022/06/15 10:17:43;;;;;;;6.72;3.63;;;;;;;30.35;32.96;100237.47;5092606;28;20040;-76
2022/06/15 10:20:28;;;;;;;5.10;3.80;;;;;;;30.76;34.37;100231.97;5092209;28;20036;-75
2022/06/15 10:22:57;;;;;;;8.73;4.15;;;;;;;30.91;32.39;100241.84;5093447;28;20028;-75
2022/06/15 10:25:23;;;;;;;7.15;3.88;;;;;;;31.15;30.69;100238.81;5093628;28;20032;-75
2022/06/15 10:27:51;;;;;;;7.50;3.58;;;;;;;31.39;31.61;100238.56;5093753;28;20044;-75
2022/06/15 10:30:22;;;;;;;7.30;3.83;;;;;;;31.58;33.72;100235.63;5093959;28;20046;-76
2022/06/15 10:32:59;;;;;;;6.18;3.80;;;;;;;32.01;32.18;100237.81;5093267;28;20035;-76
2022/06/15 10:35:24;;;;;;;;;;;;;;;32.04;31.03;100237.22;5092754;28;20032;-76
2022/06/15 10:37:54;;;;;;;5.80;3.53;;;;;;;31.51;29.90;100235.25;5093470;28;19919;-75
2022/06/15 10:40:19;;;;;;;5.20;3.50;;;;;;;32.06;31.69;100224.72;5092114;28;20497;-75
2022/06/15 10:42:50;;;;;;;4.55;3.10;;;;;;;32.70;31.07;100226.28;5091790;28;20119;-76
2022/06/15 10:45:36;;;;;;;6.15;3.38;;;;;;;32.84;28.71;100215.91;5093493;28;20386;-75
2022/06/15 10:48:12;;;;;;;6.88;3.67;;;;;;;33.26;28.38;100213.53;5093547;28;20472;-76
2022/06/15 10:50:56;;;;;;;5.63;3.22;;;;;;;33.14;28.72;100206.72;5093732;28;20118;-75
2022/06/15 10:53:49;;;;;;;7.50;3.55;;;;;;;33.26;29.57;100208.00;5092924;28;20044;-75
2022/06/15 11:02:06;;;;;;;7.35;3.20;;;;;;;33.29;28.13;100199.06;5093354;28;20040;-76
2022/06/15 11:02:37;;;;;;;3.95;3.13;;;;;;;34.09;27.83;100194.69;5092566;28;20445;-76
2022/06/15 11:05:24;;;;;;;4.18;3.30;;;;;;;34.28;27.19;100195.06;5091683;28;20123;-76
2022/06/15 11:08:32;;;;;;;7.10;3.10;;;;;;;34.15;26.51;100193.34;5092898;28;20101;-75
2022/06/15 11:11:21;;;;;;;4.63;3.10;;;;;;;33.16;27.43;100190.63;5089682;28;20477;-76
2022/06/15 11:13:57;;;;;;;5.55;3.35;;;;;;;33.98;28.66;100190.69;5091260;28;20043;-76
2022/06/15 11:19:16;;;;;;;3.72;3.25;;;;;;;34.12;27.73;100182.16;5092959;28;19915;-75
2022/06/15 11:21:55;;;;;;;5.07;3.63;;;;;;;34.38;28.45;100193.09;5090907;28;20070;-74
2022/06/15 11:24:42;;;;;;;4.53;3.03;;;;;;;33.87;28.81;100186.63;5091259;28;20042;-76
2022/06/15 11:27:26;;;;;;;3.53;3.10;;;;;;;33.55;29.13;100185.25;5091161;28;20459;-76
2022/06/15 11:30:03;;;;;;;6.25;3.22;;;;;;;34.14;27.17;100185.41;5092276;28;20032;-75
2022/06/15 11:32:44;;;;;;;6.35;3.30;;;;;;;34.02;27.46;100191.63;5090762;28;20113;-76
2022/06/15 11:35:12;;;;;;;6.03;3.22;;;;;;;33.90;28.76;100192.28;5092284;28;20073;-75
2022/06/15 11:37:46;;;;;;;5.88;3.33;;;;;;;34.49;26.76;100186.84;5092395;28;20524;-75
2022/06/15 11:40:21;;;;;;;6.00;3.13;;;;;;;35.12;27.81;100184.13;5090981;28;20050;-76
2022/06/15 11:42:53;;;;;;;4.38;3.13;;;;;;;35.25;25.72;100180.25;5091896;28;20032;-76
2022/06/15 11:45:25;;;;;;;3.80;2.90;;;;;;;35.85;25.78;100189.91;5092088;28;20050;-76
2022/06/15 11:48:18;;;;;;;5.95;3.50;;;;;;;35.63;24.53;100184.78;5092158;28;20050;-77
2022/06/15 11:50:55;;;;;;;3.60;2.80;;;;;;;36.04;25.09;100175.53;5092487;28;20039;-77
2022/06/15 11:53:57;;;;;;;5.85;3.30;;;;;;;36.19;25.45;100195.38;5092163;28;20043;-77
2022/06/15 11:56:29;;;;;;;6.13;3.53;;;;;;;35.86;26.20;100172.16;5055234;28;20076;-76
2022/06/15 11:59:41;;;;;;;3.85;2.75;;;;;;;35.86;25.26;100176.84;5092189;28;20067;-75
2022/06/15 12:02:17;;;;;;;3.90;2.63;;;;;;;36.55;24.51;100180.72;5075454;28;20047;-76
2022/06/15 12:04:58;;;;;;;4.22;2.92;;;;;;;35.99;24.68;100180.47;5092048;28;20078;-75
2022/06/15 12:07:38;;;;;;;4.75;2.95;;;;;;;36.46;24.17;100177.28;5092021;28;20497;-74
2022/06/15 12:10:12;;;;;;;4.85;2.70;;;;;;;36.62;25.21;100175.38;5092067;28;20489;-75
2022/06/15 12:12:57;;;;;;;6.75;2.80;;;;;;;36.54;22.22;100176.34;5091530;28;20065;-74
2022/06/15 12:15:39;;;;;;;3.75;2.67;;;;;;;36.22;22.80;100176.09;5091853;28;20031;-75
2022/06/15 12:18:30;;;;;;;5.35;3.13;;;;;;;35.94;23.90;100169.66;5091911;28;20043;-75
2022/06/15 12:21:05;;;;;;;3.78;2.45;;;;;;;36.49;23.29;100174.59;5091717;28;20028;-75
2022/06/15 12:23:46;;;;;;;3.15;2.55;;;;;;;36.60;24.01;100177.72;5091498;28;20580;-75
2022/06/15 12:26:21;;;;;;;5.10;3.10;;;;;;;36.60;23.09;100178.53;5091755;28;20114;-76
2022/06/15 12:29:19;;;;;;;4.03;3.10;;;;;;;36.28;22.08;100163.63;5091894;28;20032;-76
2022/06/15 12:34:55;;;;;;;3.60;2.30;;;;;;;37.13;21.39;100154.31;5091748;28;20036;-75
2022/06/15 12:37:42;;;;;;;5.03;2.88;;;;;;;37.06;21.38;100156.09;5073412;28;20036;-75
2022/06/15 12:40:22;;;;;;;6.45;2.33;;;;;;;37.65;21.45;100158.13;5091681;28;20039;-76
2022/06/15 12:42:53;;;;;;;7.00;2.45;;;;;;;36.75;21.75;100156.75;5092594;28;20528;-75
2022/06/15 12:45:25;;;;;;;3.92;2.50;;;;;;;37.76;19.71;100156.44;5095698;28;20040;-75
2022/06/15 12:47:58;;;;;;;6.00;2.03;;;;;;;37.96;19.01;100149.81;5095756;28;20040;-75
2022/06/15 12:50:46;;;;;;;2.95;2.40;;;;;;;36.84;18.89;100154.63;5095661;28;20040;-75
2022/06/15 12:53:20;;;;;;;3.30;2.42;;;;;;;37.40;18.96;100154.69;5095283;28;20058;-75
2022/06/15 12:55:56;;;;;;;3.38;1.98;;;;;;;36.98;19.78;100154.28;5095487;28;20036;-74
2022/06/15 12:58:37;;;;;;;;;;;;;;;37.46;18.45;100150.47;5095934;28;20439;-75
2022/06/15 13:01:18;;;;;;;3.70;2.20;;;;;;;37.71;19.60;100149.16;5095451;28;19919;-75
2022/06/15 13:04:04;;;;;;;4.15;1.90;;;;;;;37.32;17.37;100147.28;5095217;28;20040;-75
2022/06/15 13:06:32;;;;;;;2.70;1.85;;;;;;;36.59;18.18;100145.59;5095270;28;20062;-74
2022/06/15 13:09:00;;;;;;;2.55;1.90;;;;;;;36.60;20.01;100144.44;5096197;28;20174;-78
2022/06/15 13:11:27;;;;;;;2.65;1.75;;;;;;;36.67;18.69;100148.22;5085553;28;20037;-77
2022/06/15 13:13:54;;;;;;;2.95;1.80;;;;;;;36.30;18.36;100144.66;5076897;28;20029;-78
2022/06/15 13:16:40;;;;;;;2.45;1.67;;;;;;;35.59;18.29;100145.88;5074368;28;20047;-77
2022/06/15 13:19:25;;;;;;;6.68;2.10;;;;;;;35.50;17.35;100142.41;5057820;28;20474;-77
2022/06/15 13:21:52;;;;;;;4.15;1.83;;;;;;;35.18;18.68;100134.91;5075017;28;20115;-77
2022/06/15 13:24:19;;;;;;;2.65;1.80;;;;;;;35.02;19.26;100140.28;5074545;28;20093;-77
2022/06/15 13:26:44;;;;;;;;;;;;;;;34.40;20.38;100141.84;5073571;28;20038;-77
2022/06/15 13:29:15;;;;;;;3.67;2.10;;;;;;;34.42;21.37;100144.28;5073602;28;20369;-77
2022/06/15 13:32:01;;;;;;;3.20;2.10;;;;;;;33.56;21.46;100146.25;5074118;28;20078;-75
2022/06/15 13:34:29;;;;;;;4.20;2.03;;;;;;;33.17;19.55;100139.81;5074219;28;20036;-76
2022/06/15 13:37:23;;;;;;;2.72;1.75;;;;;;;33.16;21.71;100140.16;5073150;28;20044;-75
2022/06/15 13:40:01;;;;;;;3.22;1.92;;;;;;;33.08;20.39;100144.56;5073165;28;20040;-77
2022/06/15 13:42:35;;;;;;;4.05;1.80;;;;;;;32.83;21.85;100143.41;5075137;28;20440;-79
2022/06/15 13:45:35;;;;;;;3.33;1.80;;;;;;;33.00;20.76;100142.63;5074431;28;20111;-77
2022/06/15 13:48:14;;;;;;;2.05;1.63;;;;;;;32.73;19.64;100132.66;5071338;28;20122;-77
2022/06/15 13:50:45;;;;;;;2.30;1.60;;;;;;;32.63;19.01;100133.81;5074893;28;20037;-77
2022/06/15 13:53:28;;;;;;;2.67;1.70;;;;;;;32.90;19.52;100134.66;5073392;28;20504;-77
2022/06/15 13:55:53;;;;;;;2.95;1.50;;;;;;;32.93;18.84;100145.06;5073245;28;20068;-76
2022/06/15 13:58:43;;;;;;;2.80;2.20;;;;;;;32.63;18.62;100133.00;5074587;28;20098;-76
2022/06/15 14:01:23;;;;;;;1.85;1.45;;;;;;;32.48;20.12;100131.53;5072711;28;20032;-76
2022/06/15 14:04:24;;;;;;;3.75;1.70;;;;;;;32.20;20.73;100125.44;5072300;28;20124;-76
2022/06/15 14:07:13;;;;;;;2.15;1.60;;;;;;;32.08;21.39;100131.59;5074032;28;20036;-76
2022/06/15 14:10:20;;;;;;;3.72;2.10;;;;;;;31.75;19.89;100131.09;5073942;28;20033;-76
2022/06/15 14:13:12;;;;;;;2.95;2.47;;;;;;;31.99;20.33;100122.47;5073295;28;20032;-76
2022/06/15 14:16:02;;;;;;;2.75;1.77;;;;;;;32.06;18.98;100131.06;5073570;28;20033;-77
2022/06/15 14:18:55;;;;;;;2.53;1.50;;;;;;;32.10;18.92;100121.06;5073979;28;20036;-75
2022/06/15 14:21:25;;;;;;;2.35;1.50;;;;;;;31.96;17.81;100119.56;5073544;28;20028;-76
2022/06/15 14:23:52;;;;;;;2.78;1.55;;;;;;;32.12;17.86;100116.03;5071849;28;20557;-76
2022/06/15 14:26:22;;;;;;;3.40;1.55;;;;;;;32.03;18.35;100115.19;5071929;28;20036;-76
2022/06/15 14:29:00;;;;;;;3.55;1.58;;;;;;;31.93;19.24;100120.19;5072003;28;20667;-77
2022/06/15 14:31:28;;;;;;;4.70;1.88;;;;;;;31.91;18.71;100116.94;5073115;28;20044;-77
2022/06/15 14:33:58;;;;;;;3.08;1.50;;;;;;;32.03;19.27;100104.19;5073184;28;20124;-77
2022/06/15 14:36:26;;;;;;;2.65;1.40;;;;;;;31.86;17.01;100106.88;5073048;28;20032;-77
2022/06/15 14:39:01;;;;;;;3.17;1.80;;;;;;;32.01;18.66;100111.94;5073172;28;20226;-77
2022/06/15 14:41:31;;;;;;;1.90;1.60;;;;;;;32.01;18.53;100111.94;5072838;28;20037;-76
2022/06/15 14:43:57;;;;;;;2.45;1.80;;;;;;;32.06;20.10;100110.97;5071639;28;20040;-77
2022/06/15 14:46:35;;;;;;;2.28;1.67;;;;;;;32.12;20.29;100113.28;5073047;28;20032;-77
2022/06/15 14:49:01;;;;;;;3.72;1.85;;;;;;;32.06;19.45;100103.53;5073019;28;20039;-77
2022/06/15 14:51:29;;;;;;;2.58;1.80;;;;;;;31.78;17.18;100111.22;5072676;28;20024;-77
2022/06/15 14:54:21;;;;;;;1.80;1.20;;;;;;;31.89;17.34;100109.00;5071984;28;20032;-77
2022/06/15 14:56:47;;;;;;;2.10;1.40;;;;;;;31.94;17.45;100110.78;5073427;28;20040;-76
2022/06/15 14:59:15;;;;;;;1.75;1.50;;;;;;;31.89;19.03;100114.50;5055110;28;20033;-77
2022/06/15 15:02:08;;;;;;;2.85;1.50;;;;;;;31.63;16.83;100106.13;5072425;28;20104;-76
2022/06/15 15:04:37;;;;;;;4.03;2.00;;;;;;;31.73;17.51;100103.06;5070619;28;20052;-75
2022/06/15 15:10:20;;;;;;;2.85;1.80;;;;;;;31.73;20.12;100099.50;5072416;28;20028;-77
2022/06/15 15:12:47;;;;;;;2.97;1.70;;;;;;;31.74;20.42;100110.19;5071495;28;20451;-77
2022/06/15 15:15:12;;;;;;;3.10;1.90;;;;;;;31.69;21.23;100106.75;5072590;28;20040;-75
2022/06/15 15:18:08;;;;;;;2.45;1.48;;;;;;;31.71;20.43;100108.09;5087546;28;20084;-75
2022/06/15 15:20:44;;;;;;;2.63;1.58;;;;;;;31.60;19.83;100110.28;5092693;28;20124;-76
2022/06/15 15:23:10;;;;;;;2.45;2.10;;;;;;;31.58;20.16;100104.31;5090940;28;20051;-76
2022/06/15 15:26:04;;;;;;;2.60;2.15;;;;;;;31.64;21.68;100110.50;5092595;28;20040;-76
2022/06/15 15:34:22;;;;;;;2.22;1.55;;;;;;;31.48;19.58;100098.25;5092265;28;20067;-76
2022/06/15 15:39:37;;;;;;;2.92;1.52;;;;;;;31.41;18.33;100095.94;5092297;28;20373;-76
2022/06/15 15:42:04;;;;;;;4.75;1.75;;;;;;;31.42;19.66;100089.31;5091901;28;20038;-77
2022/06/15 15:44:30;;;;;;;3.15;1.60;;;;;;;31.33;18.58;100097.53;5092205;28;20071;-76
2022/06/15 15:46:56;;;;;;;2.90;1.77;;;;;;;31.35;19.26;100091.72;5092151;28;20105;-75
2022/06/15 15:49:21;;;;;;;1.98;1.60;;;;;;;31.30;19.08;100083.63;5092345;28;20054;-76
2022/06/15 15:51:47;;;;;;;2.50;1.80;;;;;;;31.25;19.10;100078.25;5091844;28;20044;-76
2022/06/15 15:54:12;;;;;;;2.63;1.80;;;;;;;31.17;19.11;100078.94;5092458;28;20024;-75
2022/06/15 15:56:39;;;;;;;3.53;1.85;;;;;;;31.18;18.85;100083.34;5091852;28;20043;-75
2022/06/15 15:59:05;;;;;;;1.70;1.40;;;;;;;31.20;18.46;100079.16;5092036;28;20043;-75
2022/06/15 16:01:32;;;;;;;2.92;1.77;;;;;;;31.05;19.87;100072.09;5091922;28;20039;-77
2022/06/15 16:03:58;;;;;;;;;;;;;;;31.12;20.67;100070.84;5092459;28;20554;-76
2022/06/15 16:06:24;;;;;;;3.20;1.67;;;;;;;31.11;21.43;100077.47;5091897;28;19920;-77
2022/06/15 16:08:50;;;;;;;3.07;1.60;;;;;;;31.09;19.39;100075.03;5091874;28;20050;-75
2022/06/15 16:11:15;;;;;;;4.07;1.90;;;;;;;31.06;19.72;100061.91;5091956;28;20770;-75
2022/06/15 16:13:44;;;;;;;2.55;1.92;;;;;;;31.08;20.70;100068.72;5090320;28;20040;-75
2022/06/15 16:16:09;;;;;;;2.10;1.70;;;;;;;31.02;20.55;100066.41;5090130;28;20071;-75
2022/06/15 16:18:35;;;;;;;2.90;2.30;;;;;;;31.01;20.80;100073.84;5073592;28;20481;-76
2022/06/15 16:21:01;;;;;;;2.78;2.22;;;;;;;30.97;20.41;100069.28;5091539;28;20036;-76
2022/06/15 16:23:33;;;;;;;4.43;1.98;;;;;;;30.97;20.52;100056.38;5091531;28;20048;-75
2022/06/15 16:26:00;;;;;;;2.80;1.85;;;;;;;30.88;20.77;100060.16;5090314;28;20040;-75
2022/06/15 16:28:25;;;;;;;2.80;1.85;;;;;;;30.90;20.48;100066.16;5073674;28;20036;-75
2022/06/15 16:30:51;;;;;;;2.03;1.75;;;;;;;30.83;20.45;100061.09;5100780;22;20440;-78
2022/06/15 16:33:17;;;;;;;2.60;1.77;;;;;;;30.87;20.03;100062.09;5073880;28;20136;-77
2022/06/15 16:35:44;;;;;;;3.33;2.10;;;;;;;30.81;20.64;100044.13;5074537;28;20456;-78
2022/06/15 16:38:12;;;;;;;4.07;2.10;;;;;;;30.86;21.67;100052.25;5074517;28;20036;-78
2022/06/15 16:40:38;;;;;;;3.58;1.80;;;;;;;30.82;22.25;100050.41;5088815;28;20036;-78
2022/06/15 16:43:05;;;;;;;2.92;2.25;;;;;;;30.73;23.27;100044.88;5094583;28;20047;-79